Springfield, IL (62705)

7:44 AM CST on February 12, 2016 (GMT -0600)
Springfield West Side | | Change Station
CLOSE
Current Station
Personal Weather Station
Location: Springfield, IL
Elevation: 604 ft
Nearby Weather Stations

Elev 604 ft 39.79 °N, 89.69 °W | Updated 37 seconds ago

Overcast
Overcast
22.6 °F
Feels Like 23 °F
N
0.9
Wind Variable Wind from West
Gusts 1.8 mph

Today
High -- | Low -- °F
--% Chance of Precip.
Yesterday
High -- | Low -- °F
Precip. -- in
Pressure 30.25 in
Visibility 10.0 miles
Clouds Scattered Clouds 2900 ft
Overcast 6000 ft
Windchill 23 °F
Dew Point 15 °F
Humidity 73%
Rainfall 0.00 in
Snow Depth Not available.
6:55 AM 5:30 PM
Waxing Crescent, 20% visible
METAR KSPI 121252Z 30005KT 10SM SCT029 OVC060 M06/M08 A3023 RMK AO2 SLP244 T10561078
Pressure 30.25 in
Visibility 10.0 miles
Clouds Scattered Clouds 2900 ft
Overcast 6000 ft
Windchill 23 °F
Dew Point 15 °F
Humidity 73%
Rainfall 0.00 in
Snow Depth Not available.
6:55 AM 5:30 PM
Waxing Crescent, 20% visible
METAR KSPI 121252Z 30005KT 10SM SCT029 OVC060 M06/M08 A3023 RMK AO2 SLP244 T10561078

10-Day Weather Forecast

Almanac

Astronomy

Feb. 12, 2016 Rise Set
Actual Time
Civil Twilight
Nautical Twilight
Astronomical Twilight
Moon
Length of Visible Light
Length of Day
Tomorrow will be .
, % of the Moon is Illuminated

Today's Extremes

State Highs State Lows

Community

WunderPhotos

Upload Photos

1,892,313 photos uploaded!

WunderBlog® & News

Nearby

Air Quality

  Air Quality AQ Index Pollutant
Not available.

Snow Depth

Station Depth Elevation

Earthquake Activity

City Distance Mag. Time & Date
Minimum magnitude displayed is 2.5.

Coastal Water Temperatures

Place Temperature

Stations

Nearby Weather Stations

Station Location Temp. Windchill Dew Point Humidity Wind Precip. Elev Updated Type
                   

Watches & Warnings

There are currently no watches in effect.